createdAt,value
2022-11-05T00:00:15.195Z,1006.30
2022-11-05T00:01:15.223Z,1006.35
2022-11-05T00:02:15.190Z,1006.35
2022-11-05T00:03:15.161Z,1006.34
2022-11-05T00:04:15.180Z,1006.40
2022-11-05T00:05:15.069Z,1006.35
2022-11-05T00:06:15.041Z,1006.35
2022-11-05T00:07:15.017Z,1006.34
2022-11-05T00:08:14.990Z,1006.34
2022-11-05T00:09:14.970Z,1006.32
2022-11-05T00:10:14.940Z,1006.31
2022-11-05T00:11:18.045Z,1006.34
2022-11-05T00:12:14.887Z,1006.33
2022-11-05T00:13:14.862Z,1006.34
2022-11-05T00:14:14.843Z,1006.36
2022-11-05T00:15:14.811Z,1006.39
2022-11-05T00:16:14.786Z,1006.39
2022-11-05T00:17:14.763Z,1006.41
2022-11-05T00:18:14.738Z,1006.39
2022-11-05T00:19:14.709Z,1006.42
2022-11-05T00:20:14.785Z,1006.44
2022-11-05T00:21:14.658Z,1006.40
2022-11-05T00:22:14.631Z,1006.45
2022-11-05T00:23:14.607Z,1006.46
2022-11-05T00:24:14.578Z,1006.45
2022-11-05T00:25:14.559Z,1006.48
2022-11-05T00:26:14.529Z,1006.46
2022-11-05T00:27:14.504Z,1006.46
2022-11-05T00:28:14.480Z,1006.49
2022-11-05T00:29:14.454Z,1006.50
2022-11-05T00:30:14.434Z,1006.48
2022-11-05T00:31:14.499Z,1006.48
2022-11-05T00:32:14.375Z,1006.52
2022-11-05T00:33:14.350Z,1006.50
2022-11-05T00:34:14.324Z,1006.52
2022-11-05T00:35:14.300Z,1006.52
2022-11-05T00:36:14.291Z,1006.53
2022-11-05T00:37:14.250Z,1006.55
2022-11-05T00:38:14.220Z,1006.55
2022-11-05T00:39:14.196Z,1006.54
2022-11-05T00:40:14.169Z,1006.58
2022-11-05T00:41:14.149Z,1006.59
2022-11-05T00:42:14.120Z,1006.57
2022-11-05T00:43:14.212Z,1006.60
2022-11-05T00:44:14.070Z,1006.56
2022-11-05T00:45:14.043Z,1006.53
2022-11-05T00:46:14.019Z,1006.53
2022-11-05T00:47:13.990Z,1006.51
2022-11-05T00:48:13.962Z,1006.53
2022-11-05T00:49:13.940Z,1006.51
2022-11-05T00:50:13.913Z,1006.54
2022-11-05T00:51:13.893Z,1006.52
2022-11-05T00:52:13.876Z,1006.54
2022-11-05T00:53:14.046Z,1006.53
2022-11-05T00:54:13.808Z,1006.56
2022-11-05T00:55:13.781Z,1006.54
2022-11-05T00:56:13.754Z,1006.58
2022-11-05T00:57:13.735Z,1006.54
2022-11-05T00:58:13.705Z,1006.52
2022-11-05T00:59:13.680Z,1006.53
2022-11-05T01:00:13.652Z,1006.50
2022-11-05T01:01:13.663Z,1006.52
2022-11-05T01:02:13.753Z,1006.52
2022-11-05T01:03:14.045Z,1006.55
2022-11-05T01:04:13.549Z,1006.50
2022-11-05T01:05:13.526Z,1006.56
2022-11-05T01:06:13.498Z,1006.59
2022-11-05T01:07:13.474Z,1006.59
2022-11-05T01:08:13.465Z,1006.65
2022-11-05T01:09:13.426Z,1006.62
2022-11-05T01:10:13.395Z,1006.63
2022-11-05T01:11:13.370Z,1006.64
2022-11-05T01:12:13.348Z,1006.64
2022-11-05T01:13:13.653Z,1006.61
2022-11-05T01:14:13.293Z,1006.62
2022-11-05T01:15:13.266Z,1006.59
2022-11-05T01:16:13.244Z,1006.65
2022-11-05T01:17:13.216Z,1006.61
2022-11-05T01:18:13.188Z,1006.65
2022-11-05T01:19:13.166Z,1006.61
2022-11-05T01:20:13.136Z,1006.63
2022-11-05T01:21:13.109Z,1006.67
2022-11-05T01:22:13.083Z,1006.67
2022-11-05T01:23:13.850Z,1006.65
2022-11-05T01:24:13.047Z,1006.61
2022-11-05T01:25:13.010Z,1006.65
2022-11-05T01:26:12.980Z,1006.62
2022-11-05T01:27:12.955Z,1006.62
2022-11-05T01:28:12.928Z,1006.64
2022-11-05T01:29:13.026Z,1006.65
2022-11-05T01:30:12.880Z,1006.66
2022-11-05T01:31:12.873Z,1006.70
2022-11-05T01:32:12.823Z,1006.72
2022-11-05T01:33:13.148Z,1006.77
2022-11-05T01:34:12.772Z,1006.81
2022-11-05T01:35:12.749Z,1006.82
2022-11-05T01:36:12.719Z,1006.84
2022-11-05T01:37:12.698Z,1006.82
2022-11-05T01:38:12.671Z,1006.84
2022-11-05T01:39:12.649Z,1006.86
2022-11-05T01:40:12.641Z,1006.88
2022-11-05T01:41:12.592Z,1006.85
2022-11-05T01:42:12.563Z,1006.84
2022-11-05T01:43:12.830Z,1006.82
2022-11-05T01:44:12.514Z,1006.81
2022-11-05T01:45:12.489Z,1006.81
2022-11-05T01:46:12.465Z,1006.83
2022-11-05T01:47:12.435Z,1006.86
2022-11-05T01:48:12.409Z,1006.86
2022-11-05T01:49:12.384Z,1006.88
2022-11-05T01:50:12.356Z,1006.90
2022-11-05T01:51:12.333Z,1006.87
2022-11-05T01:52:12.307Z,1006.83
2022-11-05T01:53:12.930Z,1006.87
2022-11-05T01:54:12.254Z,1006.94
2022-11-05T01:55:12.231Z,1006.94
2022-11-05T01:56:12.220Z,1006.96
2022-11-05T01:57:12.175Z,1006.94
2022-11-05T01:58:12.147Z,1006.91
2022-11-05T01:59:12.125Z,1006.92
2022-11-05T02:00:12.101Z,1006.94
2022-11-05T02:01:12.075Z,1006.97
2022-11-05T02:02:12.225Z,1006.92
2022-11-05T02:03:12.455Z,1006.94
2022-11-05T02:04:11.992Z,1006.93
2022-11-05T02:05:11.967Z,1006.95
2022-11-05T02:06:11.940Z,1006.94
2022-11-05T02:07:11.917Z,1006.92
2022-11-05T02:08:11.891Z,1006.94
2022-11-05T02:09:11.862Z,1006.95
2022-11-05T02:10:11.835Z,1006.91
2022-11-05T02:11:11.811Z,1006.93
2022-11-05T02:12:11.804Z,1006.97
2022-11-05T02:13:12.123Z,1006.95
2022-11-05T02:14:11.733Z,1006.95
2022-11-05T02:15:11.705Z,1006.96
2022-11-05T02:16:11.679Z,1006.97
2022-11-05T02:17:11.653Z,1006.97
2022-11-05T02:18:11.626Z,1006.98
2022-11-05T02:19:11.601Z,1007.03
2022-11-05T02:20:11.575Z,1007.06
2022-11-05T02:21:11.550Z,1007.07
2022-11-05T02:22:11.524Z,1007.07
2022-11-05T02:23:11.900Z,1007.07
2022-11-05T02:24:11.473Z,1007.10
2022-11-05T02:25:11.445Z,1007.02
2022-11-05T02:26:11.424Z,1007.00
2022-11-05T02:27:14.013Z,1007.06
2022-11-05T02:28:11.451Z,1007.03
2022-11-05T02:29:11.339Z,1007.06
2022-11-05T02:30:11.311Z,1007.07
2022-11-05T02:31:11.287Z,1007.07
2022-11-05T02:32:11.258Z,1007.11
2022-11-05T02:33:11.527Z,1007.10
2022-11-05T02:34:11.207Z,1007.14
2022-11-05T02:35:11.185Z,1007.10
2022-11-05T02:36:11.153Z,1007.12
2022-11-05T02:37:11.129Z,1007.14
2022-11-05T02:38:11.102Z,1007.10
2022-11-05T02:39:11.077Z,1007.13
2022-11-05T02:40:11.049Z,1007.14
2022-11-05T02:41:11.025Z,1007.14
2022-11-05T02:42:10.996Z,1007.15
2022-11-05T02:43:11.366Z,1007.13
2022-11-05T02:44:10.964Z,1007.10
2022-11-05T02:45:10.920Z,1007.08
2022-11-05T02:46:10.895Z,1007.07
2022-11-05T02:47:14.174Z,1007.10
2022-11-05T02:48:10.840Z,1007.09
2022-11-05T02:49:10.815Z,1007.09
2022-11-05T02:50:10.788Z,1007.12
2022-11-05T02:51:10.764Z,1007.09
2022-11-05T02:52:10.735Z,1007.15
2022-11-05T02:53:10.950Z,1007.13
2022-11-05T02:54:10.684Z,1007.14
2022-11-05T02:55:10.657Z,1007.17
2022-11-05T02:56:10.631Z,1007.14
2022-11-05T02:57:10.606Z,1007.16
2022-11-05T02:58:10.577Z,1007.15
2022-11-05T02:59:10.555Z,1007.14
2022-11-05T03:00:10.543Z,1007.14
2022-11-05T03:01:10.502Z,1007.13
2022-11-05T03:02:10.661Z,1007.15
2022-11-05T03:03:10.784Z,1007.14
2022-11-05T03:04:10.420Z,1007.12
2022-11-05T03:05:10.394Z,1007.14
2022-11-05T03:06:10.368Z,1007.14
2022-11-05T03:07:10.340Z,1007.10
2022-11-05T03:08:10.317Z,1007.11
2022-11-05T03:09:10.290Z,1007.11
2022-11-05T03:10:10.264Z,1007.13
2022-11-05T03:11:10.238Z,1007.14
2022-11-05T03:12:10.210Z,1007.13
2022-11-05T03:13:10.576Z,1007.13
2022-11-05T03:14:10.155Z,1007.17
2022-11-05T03:15:10.138Z,1007.12
2022-11-05T03:16:10.251Z,1007.13
2022-11-05T03:17:10.080Z,1007.11
2022-11-05T03:18:10.052Z,1007.12
2022-11-05T03:19:10.030Z,1007.10
2022-11-05T03:20:09.999Z,1007.16
2022-11-05T03:21:09.974Z,1007.12
2022-11-05T03:22:09.950Z,1007.13
2022-11-05T03:23:10.195Z,1007.09
2022-11-05T03:24:09.894Z,1007.12
2022-11-05T03:25:09.870Z,1007.11
2022-11-05T03:26:09.843Z,1007.13
2022-11-05T03:27:09.818Z,1007.09
2022-11-05T03:28:09.789Z,1007.12
2022-11-05T03:29:09.765Z,1007.14
2022-11-05T03:30:09.737Z,1007.12
2022-11-05T03:31:09.710Z,1007.13
2022-11-05T03:32:09.701Z,1007.13
2022-11-05T03:33:10.070Z,1007.11
2022-11-05T03:34:09.631Z,1007.10
2022-11-05T03:35:09.605Z,1007.14
2022-11-05T03:36:09.577Z,1007.10
2022-11-05T03:37:09.554Z,1007.10
2022-11-05T03:38:09.526Z,1007.09
2022-11-05T03:39:09.499Z,1007.10
2022-11-05T03:40:09.475Z,1007.10
2022-11-05T03:41:09.447Z,1007.12
2022-11-05T03:42:09.420Z,1007.12
2022-11-05T03:43:09.824Z,1007.14
2022-11-05T03:44:09.368Z,1007.16
2022-11-05T03:45:09.343Z,1007.15
2022-11-05T03:46:09.316Z,1007.14
2022-11-05T03:47:09.293Z,1007.15
2022-11-05T03:48:09.450Z,1007.17
2022-11-05T03:49:09.238Z,1007.19
2022-11-05T03:50:09.211Z,1007.19
2022-11-05T03:51:09.187Z,1007.20
2022-11-05T03:52:09.158Z,1007.14
2022-11-05T03:53:09.481Z,1007.19
2022-11-05T03:54:09.107Z,1007.20
2022-11-05T03:55:09.083Z,1007.21
2022-11-05T03:56:09.060Z,1007.17
2022-11-05T03:57:09.030Z,1007.23
2022-11-05T03:58:09.008Z,1007.24
2022-11-05T03:59:08.978Z,1007.22
2022-11-05T04:00:08.955Z,1007.22
2022-11-05T04:01:08.927Z,1007.24
2022-11-05T04:02:09.114Z,1007.23
2022-11-05T04:03:09.263Z,1007.22
2022-11-05T04:04:08.867Z,1007.24
2022-11-05T04:05:08.824Z,1007.25
2022-11-05T04:06:08.797Z,1007.27
2022-11-05T04:07:08.769Z,1007.23
2022-11-05T04:08:13.849Z,1007.22
2022-11-05T04:09:08.719Z,1007.26
2022-11-05T04:10:08.694Z,1007.26
2022-11-05T04:11:08.667Z,1007.23
2022-11-05T04:12:08.641Z,1007.25
2022-11-05T04:13:08.947Z,1007.26
2022-11-05T04:14:08.589Z,1007.33
2022-11-05T04:15:08.565Z,1007.31
2022-11-05T04:16:08.536Z,1007.33
2022-11-05T04:17:08.513Z,1007.30
2022-11-05T04:18:08.483Z,1007.34
2022-11-05T04:19:08.457Z,1007.33
2022-11-05T04:20:08.452Z,1007.32
2022-11-05T04:21:08.411Z,1007.35
2022-11-05T04:22:08.381Z,1007.32
2022-11-05T04:23:08.634Z,1007.33
2022-11-05T04:24:08.331Z,1007.31
2022-11-05T04:25:08.301Z,1007.33
2022-11-05T04:26:08.279Z,1007.35
2022-11-05T04:27:08.249Z,1007.37
2022-11-05T04:28:08.225Z,1007.34
2022-11-05T04:29:08.198Z,1007.35
2022-11-05T04:30:08.173Z,1007.32
2022-11-05T04:31:08.145Z,1007.34
2022-11-05T04:32:08.140Z,1007.38
2022-11-05T04:33:08.286Z,1007.43
2022-11-05T04:34:08.069Z,1007.45
2022-11-05T04:35:08.045Z,1007.43
2022-11-05T04:36:08.036Z,1007.45
2022-11-05T04:37:07.992Z,1007.44
2022-11-05T04:38:07.964Z,1007.48
2022-11-05T04:39:07.944Z,1007.51
2022-11-05T04:40:07.912Z,1007.49
2022-11-05T04:41:07.885Z,1007.48
2022-11-05T04:42:07.861Z,1007.52
2022-11-05T04:43:13.613Z,1007.52
2022-11-05T04:44:07.810Z,1007.52
2022-11-05T04:45:07.783Z,1007.52
2022-11-05T04:46:07.759Z,1007.54
2022-11-05T04:47:07.728Z,1007.51
2022-11-05T04:48:07.704Z,1007.55
2022-11-05T04:49:07.679Z,1007.52
2022-11-05T04:50:07.652Z,1007.55
2022-11-05T04:51:07.625Z,1007.57
2022-11-05T04:52:07.616Z,1007.56
2022-11-05T04:53:07.713Z,1007.56
2022-11-05T04:54:07.550Z,1007.55
2022-11-05T04:55:07.520Z,1007.56
2022-11-05T04:56:07.494Z,1007.55
2022-11-05T04:57:07.474Z,1007.54
2022-11-05T04:58:07.445Z,1007.53
2022-11-05T04:59:07.416Z,1007.51
2022-11-05T05:00:07.391Z,1007.52
2022-11-05T05:01:07.419Z,1007.51
2022-11-05T05:02:07.423Z,1007.51
2022-11-05T05:03:07.320Z,1007.52
2022-11-05T05:04:07.288Z,1007.53
2022-11-05T05:05:07.259Z,1007.56
2022-11-05T05:06:07.237Z,1007.56
2022-11-05T05:07:07.208Z,1007.54
2022-11-05T05:08:07.200Z,1007.58
2022-11-05T05:09:07.154Z,1007.58
2022-11-05T05:10:07.130Z,1007.56
2022-11-05T05:11:07.103Z,1007.61
2022-11-05T05:12:07.078Z,1007.64
2022-11-05T05:13:07.052Z,1007.70
2022-11-05T05:14:07.027Z,1007.62
2022-11-05T05:15:07.003Z,1007.70
2022-11-05T05:16:06.974Z,1007.68
2022-11-05T05:17:06.949Z,1007.72
2022-11-05T05:18:06.921Z,1007.70
2022-11-05T05:19:06.894Z,1007.72
2022-11-05T05:20:06.872Z,1007.72
2022-11-05T05:21:06.843Z,1007.74
2022-11-05T05:22:06.816Z,1007.74
2022-11-05T05:23:06.791Z,1007.75
2022-11-05T05:24:06.869Z,1007.74
2022-11-05T05:25:06.737Z,1007.77
2022-11-05T05:26:06.714Z,1007.76
2022-11-05T05:27:06.685Z,1007.73
2022-11-05T05:28:06.662Z,1007.76
2022-11-05T05:29:06.638Z,1007.76
2022-11-05T05:30:06.607Z,1007.76
2022-11-05T05:31:06.582Z,1007.74
2022-11-05T05:32:06.555Z,1007.84
2022-11-05T05:33:06.529Z,1007.77
2022-11-05T05:34:06.505Z,1007.78
2022-11-05T05:35:06.473Z,1007.76
2022-11-05T05:36:11.153Z,1007.76
2022-11-05T05:37:06.423Z,1007.82
2022-11-05T05:38:06.399Z,1007.80
2022-11-05T05:39:06.369Z,1007.81
2022-11-05T05:40:06.364Z,1007.80
2022-11-05T05:41:06.324Z,1007.84
2022-11-05T05:42:06.299Z,1007.84
2022-11-05T05:43:06.268Z,1007.84
2022-11-05T05:44:06.245Z,1007.83
2022-11-05T05:45:06.219Z,1007.83
2022-11-05T05:46:06.188Z,1007.83
2022-11-05T05:47:06.161Z,1007.88
2022-11-05T05:48:06.141Z,1007.85
2022-11-05T05:49:12.044Z,1007.87
2022-11-05T05:50:06.081Z,1007.85
2022-11-05T05:51:06.054Z,1007.87
2022-11-05T05:52:06.029Z,1007.91
2022-11-05T05:53:06.000Z,1007.90
2022-11-05T05:54:05.996Z,1007.96
2022-11-05T05:55:05.950Z,1007.92
2022-11-05T05:56:05.940Z,1007.94
2022-11-05T05:57:05.895Z,1007.96
2022-11-05T05:58:05.872Z,1007.99
2022-11-05T05:59:05.841Z,1007.99
2022-11-05T06:00:05.817Z,1008.01
2022-11-05T06:01:05.790Z,1008.03
2022-11-05T06:02:05.986Z,1008.00
2022-11-05T06:03:05.829Z,1008.05
2022-11-05T06:04:05.710Z,1008.09
2022-11-05T06:05:05.683Z,1008.08
2022-11-05T06:06:05.661Z,1008.04
2022-11-05T06:07:05.632Z,1008.07
2022-11-05T06:08:05.605Z,1008.07
2022-11-05T06:09:05.578Z,1008.09
2022-11-05T06:10:05.550Z,1008.07
2022-11-05T06:11:05.628Z,1008.13
2022-11-05T06:12:05.518Z,1008.16
2022-11-05T06:13:05.480Z,1008.13
2022-11-05T06:14:05.447Z,1008.15
2022-11-05T06:15:05.421Z,1008.14
2022-11-05T06:16:05.395Z,1008.18
2022-11-05T06:17:05.365Z,1008.20
2022-11-05T06:18:05.343Z,1008.18
2022-11-05T06:19:05.311Z,1008.17
2022-11-05T06:20:05.287Z,1008.24
2022-11-05T06:21:05.261Z,1008.21
2022-11-05T06:22:05.236Z,1008.23
2022-11-05T06:23:05.206Z,1008.27
2022-11-05T06:24:05.185Z,1008.27
2022-11-05T06:25:05.157Z,1008.27
2022-11-05T06:26:05.133Z,1008.28
2022-11-05T06:27:05.102Z,1008.31
2022-11-05T06:28:05.227Z,1008.27
2022-11-05T06:29:05.051Z,1008.34
2022-11-05T06:30:05.024Z,1008.31
2022-11-05T06:31:04.994Z,1008.34
2022-11-05T06:32:04.971Z,1008.32
2022-11-05T06:33:04.987Z,1008.32
2022-11-05T06:34:04.916Z,1008.32
2022-11-05T06:35:04.893Z,1008.34
2022-11-05T06:36:04.865Z,1008.35
2022-11-05T06:37:04.838Z,1008.36
2022-11-05T06:38:04.812Z,1008.36
2022-11-05T06:39:04.782Z,1008.40
2022-11-05T06:40:04.758Z,1008.43
2022-11-05T06:41:10.100Z,1008.42
2022-11-05T06:42:17.780Z,1008.43
2022-11-05T06:43:04.678Z,1008.43
2022-11-05T06:44:04.678Z,1008.41
2022-11-05T06:45:04.625Z,1008.48
2022-11-05T06:46:04.604Z,1008.44
2022-11-05T06:47:04.571Z,1008.49
2022-11-05T06:48:04.545Z,1008.49
2022-11-05T06:49:04.520Z,1008.48
2022-11-05T06:50:04.498Z,1008.48
2022-11-05T06:51:04.467Z,1008.51
2022-11-05T06:52:04.443Z,1008.48
2022-11-05T06:53:04.446Z,1008.55
2022-11-05T06:54:04.388Z,1008.56
2022-11-05T06:55:04.362Z,1008.55
2022-11-05T06:56:04.337Z,1008.53
2022-11-05T06:57:04.309Z,1008.55
2022-11-05T06:58:04.284Z,1008.57
2022-11-05T06:59:04.256Z,1008.62
2022-11-05T07:00:07.857Z,1008.62
2022-11-05T07:01:04.303Z,1008.58
2022-11-05T07:02:04.220Z,1008.59
2022-11-05T07:03:04.152Z,1008.61
2022-11-05T07:04:04.125Z,1008.64
2022-11-05T07:05:04.110Z,1008.65
2022-11-05T07:06:04.074Z,1008.69
2022-11-05T07:07:04.053Z,1008.68
2022-11-05T07:08:04.024Z,1008.70
2022-11-05T07:09:03.995Z,1008.71
2022-11-05T07:10:03.971Z,1008.71
2022-11-05T07:11:03.941Z,1008.70
2022-11-05T07:12:03.918Z,1008.75
2022-11-05T07:13:08.096Z,1008.77
2022-11-05T07:14:03.863Z,1008.72
2022-11-05T07:15:03.837Z,1008.75
2022-11-05T07:16:03.837Z,1008.74
2022-11-05T07:17:03.789Z,1008.81
2022-11-05T07:18:03.764Z,1008.78
2022-11-05T07:19:03.732Z,1008.82
2022-11-05T07:20:03.711Z,1008.81
2022-11-05T07:21:03.687Z,1008.79
2022-11-05T07:22:03.655Z,1008.84
2022-11-05T07:23:03.648Z,1008.82
2022-11-05T07:24:03.605Z,1008.84
2022-11-05T07:25:03.575Z,1008.87
2022-11-05T07:26:03.550Z,1008.84
2022-11-05T07:27:03.522Z,1008.89
2022-11-05T07:28:03.496Z,1008.88
2022-11-05T07:29:03.472Z,1008.89
2022-11-05T07:30:03.447Z,1008.91
2022-11-05T07:31:03.418Z,1008.92
2022-11-05T07:32:03.413Z,1008.97
2022-11-05T07:33:03.368Z,1008.93
2022-11-05T07:34:03.339Z,1008.89
2022-11-05T07:35:03.312Z,1008.93
2022-11-05T07:36:03.287Z,1008.89
2022-11-05T07:37:03.258Z,1008.94
2022-11-05T07:38:03.236Z,1008.95
2022-11-05T07:39:03.208Z,1008.97
2022-11-05T07:40:03.189Z,1008.96
2022-11-05T07:41:03.156Z,1008.96
2022-11-05T07:42:03.133Z,1008.95
2022-11-05T07:43:03.103Z,1008.97
2022-11-05T07:44:03.076Z,1008.98
2022-11-05T07:45:03.047Z,1008.95
2022-11-05T07:46:03.025Z,1008.98
2022-11-05T07:47:02.998Z,1009.00
2022-11-05T07:48:03.000Z,1009.02
2022-11-05T07:49:02.946Z,1009.06
2022-11-05T07:50:02.937Z,1009.01
2022-11-05T07:51:02.899Z,1009.01
2022-11-05T07:52:02.882Z,1008.97
2022-11-05T07:53:02.840Z,1008.99
2022-11-05T07:54:02.820Z,1008.99
2022-11-05T07:55:02.809Z,1009.01
2022-11-05T07:56:02.764Z,1009.01
2022-11-05T07:57:02.738Z,1009.01
2022-11-05T07:58:02.737Z,1009.01
2022-11-05T07:59:02.689Z,1009.02
2022-11-05T08:00:02.661Z,1009.01
2022-11-05T08:01:02.793Z,1008.98
2022-11-05T08:02:02.858Z,1009.03
2022-11-05T08:03:07.752Z,1009.02
2022-11-05T08:04:02.573Z,1009.01
2022-11-05T08:05:02.530Z,1009.06
2022-11-05T08:06:02.503Z,1008.99
2022-11-05T08:07:02.652Z,1008.98
2022-11-05T08:08:02.450Z,1009.01
2022-11-05T08:09:02.423Z,1009.05
2022-11-05T08:10:02.397Z,1009.01
2022-11-05T08:11:02.385Z,1009.02
2022-11-05T08:12:03.271Z,1008.99
2022-11-05T08:13:02.320Z,1008.96
2022-11-05T08:14:02.290Z,1008.96
2022-11-05T08:15:02.264Z,1008.97
2022-11-05T08:16:02.242Z,1008.97
2022-11-05T08:17:02.213Z,1009.01
2022-11-05T08:18:02.197Z,1009.00
2022-11-05T08:19:02.162Z,1009.00
2022-11-05T08:20:02.151Z,1008.97
2022-11-05T08:21:02.111Z,1008.96
2022-11-05T08:22:02.081Z,1009.01
2022-11-05T08:23:02.094Z,1009.04
2022-11-05T08:24:02.029Z,1009.06
2022-11-05T08:25:06.591Z,1009.08
2022-11-05T08:26:01.980Z,1009.06
2022-11-05T08:27:01.976Z,1009.09
2022-11-05T08:28:01.936Z,1009.10
2022-11-05T08:29:02.195Z,1009.09
2022-11-05T08:30:01.872Z,1009.08
2022-11-05T08:31:01.846Z,1009.06
2022-11-05T08:32:01.820Z,1009.07
2022-11-05T08:33:01.796Z,1009.05
2022-11-05T08:34:02.827Z,1009.07
2022-11-05T08:35:01.744Z,1009.09
2022-11-05T08:36:01.841Z,1009.10
2022-11-05T08:37:01.690Z,1009.08
2022-11-05T08:38:01.664Z,1009.09
2022-11-05T08:39:01.639Z,1009.06
2022-11-05T08:40:01.613Z,1009.10
2022-11-05T08:41:01.586Z,1009.11
2022-11-05T08:42:01.559Z,1009.08
2022-11-05T08:43:01.535Z,1009.12
2022-11-05T08:44:01.512Z,1009.14
2022-11-05T08:45:01.480Z,1009.17
2022-11-05T08:46:01.456Z,1009.19
2022-11-05T08:47:01.429Z,1009.18
2022-11-05T08:48:01.400Z,1009.21
2022-11-05T08:49:01.378Z,1009.22
2022-11-05T08:50:01.350Z,1009.23
2022-11-05T08:51:01.328Z,1009.26
2022-11-05T08:52:01.315Z,1009.30
2022-11-05T08:53:01.272Z,1009.31
2022-11-05T08:54:01.248Z,1009.30
2022-11-05T08:55:01.222Z,1009.27
2022-11-05T08:56:01.290Z,1009.30
2022-11-05T08:57:01.186Z,1009.30
2022-11-05T08:58:01.281Z,1009.32
2022-11-05T08:59:01.176Z,1009.35
2022-11-05T09:00:01.101Z,1009.36
2022-11-05T09:01:04.976Z,1009.37
2022-11-05T09:02:01.263Z,1009.37
2022-11-05T09:03:01.159Z,1009.41
2022-11-05T09:04:01.045Z,1009.40
2022-11-05T09:05:00.962Z,1009.40
2022-11-05T09:06:00.932Z,1009.45
2022-11-05T09:07:00.908Z,1009.44
2022-11-05T09:08:01.757Z,1009.42
2022-11-05T09:09:00.858Z,1009.41
2022-11-05T09:10:00.829Z,1009.44
2022-11-05T09:11:00.857Z,1009.48
2022-11-05T09:12:16.134Z,1009.43
2022-11-05T09:13:00.753Z,1009.46
2022-11-05T09:14:00.725Z,1009.45
2022-11-05T09:15:00.708Z,1009.42
2022-11-05T09:16:00.679Z,1009.46
2022-11-05T09:17:00.647Z,1009.44
2022-11-05T09:18:00.625Z,1009.44
2022-11-05T09:19:00.597Z,1009.49
2022-11-05T09:20:00.568Z,1009.48
2022-11-05T09:21:00.543Z,1009.49
2022-11-05T09:22:00.552Z,1009.50
2022-11-05T09:23:00.494Z,1009.45
2022-11-05T09:24:00.488Z,1009.44
2022-11-05T09:25:00.442Z,1009.49
2022-11-05T09:26:00.421Z,1009.49
2022-11-05T09:27:00.393Z,1009.49
2022-11-05T09:28:00.365Z,1009.56
2022-11-05T09:29:00.342Z,1009.52
2022-11-05T09:30:00.318Z,1009.56
2022-11-05T09:31:00.292Z,1009.54
2022-11-05T09:32:00.265Z,1009.52
2022-11-05T09:33:00.249Z,1009.54
2022-11-05T09:34:00.253Z,1009.54
2022-11-05T09:35:00.256Z,1009.55
2022-11-05T09:36:00.293Z,1009.55
2022-11-05T09:37:00.232Z,1009.52
2022-11-05T09:38:01.283Z,1009.51
2022-11-05T09:39:00.099Z,1009.54
2022-11-05T09:40:00.159Z,1009.55
2022-11-05T09:41:00.321Z,1009.55
2022-11-05T09:42:00.132Z,1009.54
2022-11-05T09:43:00.006Z,1009.59
2022-11-05T09:44:00.321Z,1009.59
2022-11-05T09:45:00.081Z,1009.60
2022-11-05T09:46:00.015Z,1009.58
2022-11-05T09:47:00.009Z,1009.62
2022-11-05T09:47:59.937Z,1009.64
2022-11-05T09:48:59.906Z,1009.69
2022-11-05T09:50:00.366Z,1009.70
2022-11-05T09:50:59.837Z,1009.70
2022-11-05T09:51:59.925Z,1009.73
2022-11-05T09:52:59.840Z,1009.71
2022-11-05T09:53:59.838Z,1009.70
2022-11-05T09:54:59.749Z,1009.68
2022-11-05T09:55:59.748Z,1009.73
2022-11-05T09:56:59.709Z,1009.72
2022-11-05T09:57:59.645Z,1009.76
2022-11-05T09:58:59.718Z,1009.75
2022-11-05T09:59:59.637Z,1009.71
2022-11-05T10:00:59.680Z,1009.70
2022-11-05T10:01:59.837Z,1009.73
2022-11-05T10:02:59.552Z,1009.71
2022-11-05T10:03:59.545Z,1009.69
2022-11-05T10:05:02.523Z,1009.68
2022-11-05T10:05:59.560Z,1009.74
2022-11-05T10:06:59.515Z,1009.71
2022-11-05T10:07:59.500Z,1009.69
2022-11-05T10:08:59.476Z,1009.70
2022-11-05T10:09:59.506Z,1009.74
2022-11-05T10:10:59.592Z,1009.75
2022-11-05T10:11:59.476Z,1009.75
2022-11-05T10:12:59.326Z,1009.78
2022-11-05T10:13:59.304Z,1009.77
2022-11-05T10:14:59.251Z,1009.76
2022-11-05T10:15:59.222Z,1009.73
2022-11-05T10:16:59.201Z,1009.75
2022-11-05T10:17:59.185Z,1009.77
2022-11-05T10:18:59.156Z,1009.72
2022-11-05T10:19:59.134Z,1009.74
2022-11-05T10:20:59.202Z,1009.75
2022-11-05T10:22:06.709Z,1009.76
2022-11-05T10:22:59.074Z,1009.75
2022-11-05T10:23:59.058Z,1009.77
2022-11-05T10:24:59.064Z,1009.73
2022-11-05T10:25:59.338Z,1009.80
2022-11-05T10:26:58.982Z,1009.80
2022-11-05T10:27:58.978Z,1009.76
2022-11-05T10:28:58.942Z,1009.81
2022-11-05T10:29:58.918Z,1009.80
2022-11-05T10:30:58.900Z,1009.80
2022-11-05T10:31:58.874Z,1009.81
2022-11-05T10:32:58.859Z,1009.85
2022-11-05T10:33:58.834Z,1009.85
2022-11-05T10:34:58.812Z,1009.87
2022-11-05T10:35:58.789Z,1009.86
2022-11-05T10:36:58.770Z,1009.90
2022-11-05T10:37:58.753Z,1009.89
2022-11-05T10:38:58.729Z,1009.86
2022-11-05T10:39:58.713Z,1009.92
2022-11-05T10:40:58.694Z,1009.92
2022-11-05T10:41:58.669Z,1009.91
2022-11-05T10:42:58.647Z,1009.95
2022-11-05T10:43:58.647Z,1009.89
2022-11-05T10:44:58.607Z,1009.92
2022-11-05T10:45:58.588Z,1009.91
2022-11-05T10:46:58.562Z,1009.88
2022-11-05T10:47:58.542Z,1009.88
2022-11-05T10:48:58.524Z,1009.89
2022-11-05T10:49:58.500Z,1009.89
2022-11-05T10:50:58.483Z,1009.88
2022-11-05T10:51:58.463Z,1009.91
2022-11-05T10:52:58.441Z,1009.89
2022-11-05T10:54:01.879Z,1009.89
2022-11-05T10:54:58.402Z,1009.87
2022-11-05T10:55:58.380Z,1009.93
2022-11-05T10:56:58.359Z,1009.83
2022-11-05T10:57:58.338Z,1009.80
2022-11-05T10:58:58.322Z,1009.81
2022-11-05T10:59:58.317Z,1009.80
2022-11-05T11:00:58.551Z,1009.84
2022-11-05T11:01:58.619Z,1009.85
2022-11-05T11:02:58.253Z,1009.83
2022-11-05T11:03:58.225Z,1009.86
2022-11-05T11:04:58.210Z,1009.85
2022-11-05T11:05:58.173Z,1009.83
2022-11-05T11:06:58.578Z,1009.81
2022-11-05T11:07:58.183Z,1009.79
2022-11-05T11:08:58.222Z,1009.84
2022-11-05T11:09:58.119Z,1009.83
2022-11-05T11:10:58.250Z,1009.80
2022-11-05T11:11:58.124Z,1009.86
2022-11-05T11:12:58.119Z,1009.88
2022-11-05T11:13:58.021Z,1009.88
2022-11-05T11:14:58.048Z,1009.87
2022-11-05T11:15:58.114Z,1009.84
2022-11-05T11:16:58.267Z,1009.83
2022-11-05T11:17:58.026Z,1009.84
2022-11-05T11:18:57.996Z,1009.80
2022-11-05T11:19:58.004Z,1009.83
2022-11-05T11:20:57.957Z,1009.80
2022-11-05T11:21:57.909Z,1009.76
2022-11-05T11:22:57.917Z,1009.80
2022-11-05T11:23:57.926Z,1009.84
2022-11-05T11:24:57.875Z,1009.83
2022-11-05T11:25:57.769Z,1009.82
2022-11-05T11:26:57.751Z,1009.79
2022-11-05T11:27:57.802Z,1009.79
2022-11-05T11:28:57.807Z,1009.77
2022-11-05T11:29:57.690Z,1009.73
2022-11-05T11:30:58.112Z,1009.77
2022-11-05T11:31:57.881Z,1009.75
2022-11-05T11:32:57.747Z,1009.69
2022-11-05T11:33:57.618Z,1009.77
2022-11-05T11:34:57.548Z,1009.78
2022-11-05T11:35:57.554Z,1009.76
2022-11-05T11:36:57.527Z,1009.81
2022-11-05T11:37:57.617Z,1009.81
2022-11-05T11:38:57.498Z,1009.83
2022-11-05T11:39:57.461Z,1009.85
2022-11-05T11:40:57.417Z,1009.86
2022-11-05T11:41:57.446Z,1009.86
2022-11-05T11:42:57.479Z,1009.89
2022-11-05T11:43:57.356Z,1009.85
2022-11-05T11:44:57.360Z,1009.84
2022-11-05T11:46:02.152Z,1009.91
2022-11-05T11:46:57.275Z,1009.87
2022-11-05T11:47:57.272Z,1009.83
2022-11-05T11:48:57.231Z,1009.87
2022-11-05T11:49:57.206Z,1009.86
2022-11-05T11:50:57.192Z,1009.85
2022-11-05T11:51:57.159Z,1009.85
2022-11-05T11:52:57.141Z,1009.79
2022-11-05T11:53:57.116Z,1009.85
2022-11-05T11:54:57.104Z,1009.83
2022-11-05T11:55:57.070Z,1009.78
2022-11-05T11:56:57.048Z,1009.82
2022-11-05T11:57:57.028Z,1009.74
2022-11-05T11:58:57.005Z,1009.79
2022-11-05T12:00:12.346Z,1009.83
2022-11-05T12:00:56.958Z,1009.82
2022-11-05T12:01:57.029Z,1009.83
2022-11-05T12:03:11.870Z,1009.78
2022-11-05T12:03:56.906Z,1009.81
2022-11-05T12:04:56.873Z,1009.81